createdAt,value
2023-02-16T00:02:29.887Z,30.80
2023-02-16T00:04:56.657Z,30.10
2023-02-16T00:07:23.322Z,32.07
2023-02-16T00:09:49.982Z,30.03
2023-02-16T00:12:39.553Z,30.73
2023-02-16T00:15:18.103Z,28.57
2023-02-16T00:17:44.736Z,30.00
2023-02-16T00:20:16.438Z,30.40
2023-02-16T00:22:43.295Z,30.20
2023-02-16T00:25:10.672Z,31.70
2023-02-16T00:27:38.029Z,30.67
2023-02-16T00:30:16.773Z,27.77
2023-02-16T00:32:43.713Z,30.57
2023-02-16T00:35:18.074Z,29.80
2023-02-16T00:37:45.249Z,30.23
2023-02-16T00:40:13.029Z,30.87
2023-02-16T00:42:40.263Z,30.43
2023-02-16T00:45:15.944Z,30.90
2023-02-16T00:47:44.750Z,29.87
2023-02-16T00:50:19.836Z,30.90
2023-02-16T00:52:47.427Z,31.33
2023-02-16T00:55:15.719Z,30.87
2023-02-16T00:58:06.194Z,30.30
2023-02-16T01:00:54.200Z,32.53
2023-02-16T01:03:26.592Z,31.77
2023-02-16T01:06:11.856Z,32.50
2023-02-16T01:08:57.008Z,30.87
2023-02-16T01:11:24.164Z,32.20
2023-02-16T01:13:51.921Z,32.30
2023-02-16T01:16:25.673Z,32.17
2023-02-16T01:18:53.825Z,34.40
2023-02-16T01:21:22.030Z,34.40
2023-02-16T01:23:48.889Z,33.50
2023-02-16T01:26:18.382Z,32.97
2023-02-16T01:28:45.593Z,33.03
2023-02-16T01:31:13.209Z,33.70
2023-02-16T01:33:41.318Z,33.33
2023-02-16T01:36:34.439Z,35.13
2023-02-16T01:39:01.402Z,31.60
2023-02-16T01:41:57.534Z,33.30
2023-02-16T01:44:29.323Z,33.80
2023-02-16T01:47:11.638Z,33.83
2023-02-16T01:49:38.492Z,32.83
2023-02-16T01:52:37.665Z,32.53
2023-02-16T01:55:25.292Z,33.20
2023-02-16T01:58:01.050Z,33.17
2023-02-16T02:00:48.397Z,33.03
2023-02-16T02:03:38.571Z,33.50
2023-02-16T02:06:10.129Z,33.17
2023-02-16T02:08:39.710Z,32.17
2023-02-16T02:11:14.097Z,33.43
2023-02-16T02:13:55.250Z,34.37
2023-02-16T02:16:24.403Z,33.73
2023-02-16T02:18:51.252Z,32.27
2023-02-16T02:22:14.547Z,35.13
2023-02-16T02:24:50.277Z,35.00
2023-02-16T02:27:27.517Z,33.33
2023-02-16T02:30:06.330Z,34.77
2023-02-16T02:32:54.442Z,34.33
2023-02-16T02:35:48.309Z,35.33
2023-02-16T02:38:33.284Z,34.90
2023-02-16T02:41:48.308Z,35.93
2023-02-16T02:44:20.832Z,33.80
2023-02-16T02:46:48.673Z,34.90
2023-02-16T02:49:16.023Z,35.30
2023-02-16T02:51:42.719Z,35.07
2023-02-16T02:54:31.455Z,35.93
2023-02-16T02:57:45.801Z,35.33
2023-02-16T03:00:41.980Z,34.80
2023-02-16T03:03:14.028Z,36.67
2023-02-16T03:05:45.966Z,37.47
2023-02-16T03:08:16.367Z,34.93
2023-02-16T03:11:08.717Z,39.87
2023-02-16T03:13:45.946Z,40.57
2023-02-16T03:16:41.279Z,40.60
2023-02-16T03:19:29.138Z,39.93
2023-02-16T03:22:15.779Z,41.73
2023-02-16T03:25:01.426Z,39.47
2023-02-16T03:27:50.908Z,40.07
2023-02-16T03:30:19.604Z,38.00
2023-02-16T03:32:46.909Z,39.17
2023-02-16T03:35:14.057Z,35.53
2023-02-16T03:37:41.982Z,37.67
2023-02-16T03:40:32.711Z,39.43
2023-02-16T03:43:03.013Z,37.27
2023-02-16T03:45:31.678Z,37.47
2023-02-16T03:47:58.513Z,37.67
2023-02-16T03:50:27.095Z,38.23
2023-02-16T03:53:06.732Z,38.57
2023-02-16T03:55:39.787Z,38.53
2023-02-16T03:58:08.629Z,38.80
2023-02-16T04:00:36.486Z,38.90
2023-02-16T04:03:04.872Z,39.27
2023-02-16T04:05:32.023Z,40.33
2023-02-16T04:07:58.840Z,40.50
2023-02-16T04:10:25.642Z,41.40
2023-02-16T04:12:52.344Z,43.23
2023-02-16T04:15:22.868Z,41.83
2023-02-16T04:17:50.069Z,39.87
2023-02-16T04:20:19.872Z,43.60
2023-02-16T04:22:47.281Z,41.40
2023-02-16T04:25:15.048Z,43.03
2023-02-16T04:27:43.201Z,44.57
2023-02-16T04:30:13.715Z,44.83
2023-02-16T04:32:40.764Z,44.17
2023-02-16T04:35:08.292Z,44.53
2023-02-16T04:37:35.053Z,46.07
2023-02-16T04:40:01.963Z,47.03
2023-02-16T04:42:28.686Z,46.13
2023-02-16T04:44:55.382Z,45.87
2023-02-16T04:47:23.016Z,47.53
2023-02-16T04:49:50.405Z,47.67
2023-02-16T04:52:17.177Z,48.17
2023-02-16T04:54:44.012Z,47.83
2023-02-16T04:57:12.228Z,46.93
2023-02-16T04:59:39.027Z,46.73
2023-02-16T05:02:05.698Z,44.47
2023-02-16T05:04:32.414Z,44.53
2023-02-16T05:06:59.154Z,47.47
2023-02-16T05:09:25.907Z,45.50
2023-02-16T05:12:11.092Z,44.30
2023-02-16T05:14:44.793Z,45.23
2023-02-16T05:17:23.825Z,43.50
2023-02-16T05:19:53.320Z,44.23
2023-02-16T05:22:20.843Z,44.33
2023-02-16T05:24:48.421Z,43.30
2023-02-16T05:27:23.809Z,46.03
2023-02-16T05:29:50.575Z,47.07
2023-02-16T05:32:17.555Z,45.30
2023-02-16T05:34:46.960Z,46.23
2023-02-16T05:37:16.016Z,44.10
2023-02-16T05:39:42.878Z,44.77
2023-02-16T05:42:09.871Z,46.53
2023-02-16T05:44:37.197Z,44.00
2023-02-16T05:47:04.331Z,46.10
2023-02-16T05:49:31.183Z,47.13
2023-02-16T05:51:57.840Z,46.57
2023-02-16T05:54:24.512Z,46.50
2023-02-16T05:56:52.070Z,46.53
2023-02-16T05:59:19.106Z,46.67
2023-02-16T06:01:50.411Z,45.60
2023-02-16T06:04:18.650Z,47.63
2023-02-16T06:06:45.467Z,47.13
2023-02-16T06:09:12.481Z,47.17
2023-02-16T06:11:39.500Z,45.83
2023-02-16T06:14:12.250Z,45.57
2023-02-16T06:16:41.547Z,47.27
2023-02-16T06:19:09.289Z,47.23
2023-02-16T06:21:38.409Z,46.97
2023-02-16T06:24:06.370Z,47.53
2023-02-16T06:26:33.366Z,47.70
2023-02-16T06:29:00.111Z,48.70
2023-02-16T06:31:27.130Z,47.90
2023-02-16T06:33:54.502Z,47.47
2023-02-16T06:36:21.190Z,48.10
2023-02-16T06:38:48.303Z,48.13
2023-02-16T06:41:31.171Z,46.13
2023-02-16T06:44:03.646Z,46.67
2023-02-16T06:46:30.568Z,48.93
2023-02-16T06:48:57.285Z,48.70
2023-02-16T06:51:23.979Z,48.30
2023-02-16T06:53:50.620Z,47.07
2023-02-16T06:56:17.267Z,49.43
2023-02-16T06:58:44.243Z,46.20
2023-02-16T07:01:11.719Z,48.17
2023-02-16T07:03:38.528Z,47.87
2023-02-16T07:06:05.889Z,49.47
2023-02-16T07:08:32.596Z,47.67
2023-02-16T07:10:59.343Z,46.63
2023-02-16T07:13:25.984Z,48.73
2023-02-16T07:15:52.720Z,49.60
2023-02-16T07:18:19.425Z,47.80
2023-02-16T07:20:47.652Z,49.83
2023-02-16T07:23:14.290Z,48.30
2023-02-16T07:25:40.978Z,47.80
2023-02-16T07:28:07.573Z,47.60
2023-02-16T07:30:34.302Z,49.27
2023-02-16T07:33:00.937Z,48.00
2023-02-16T07:35:27.658Z,48.77
2023-02-16T07:37:54.371Z,48.17
2023-02-16T07:40:21.192Z,47.37
2023-02-16T07:42:47.993Z,48.33
2023-02-16T07:45:14.779Z,48.07
2023-02-16T07:47:41.499Z,47.37
2023-02-16T07:50:08.679Z,48.37
2023-02-16T07:52:35.398Z,47.40
2023-02-16T07:55:02.215Z,47.90
2023-02-16T07:57:29.924Z,47.07
2023-02-16T07:59:56.647Z,48.37
2023-02-16T08:02:23.768Z,48.07
2023-02-16T08:04:52.836Z,47.37
2023-02-16T08:07:20.681Z,46.63
2023-02-16T08:09:47.334Z,45.23
2023-02-16T08:12:15.908Z,47.80
2023-02-16T08:14:43.627Z,45.73
2023-02-16T08:17:10.668Z,46.60
2023-02-16T08:19:37.678Z,47.37
2023-02-16T08:22:05.813Z,45.17
2023-02-16T08:24:34.078Z,43.80
2023-02-16T08:27:03.874Z,45.73
2023-02-16T08:29:31.574Z,45.70
2023-02-16T08:31:58.721Z,45.33
2023-02-16T08:34:26.400Z,44.80
2023-02-16T08:36:56.859Z,43.50
2023-02-16T08:39:27.130Z,43.47
2023-02-16T08:41:54.961Z,44.97
2023-02-16T08:44:23.914Z,43.53
2023-02-16T08:46:52.812Z,42.63
2023-02-16T08:49:21.959Z,42.97
2023-02-16T08:51:52.207Z,42.00
2023-02-16T08:54:26.658Z,43.97
2023-02-16T08:56:54.340Z,40.70
2023-02-16T08:59:22.325Z,43.17
2023-02-16T09:01:49.096Z,42.07
2023-02-16T09:04:17.550Z,43.27
2023-02-16T09:06:45.857Z,42.70
2023-02-16T09:09:13.372Z,42.73
2023-02-16T09:11:41.020Z,42.53
2023-02-16T09:14:09.333Z,45.27
2023-02-16T09:16:39.696Z,43.23
2023-02-16T09:19:07.345Z,44.23
2023-02-16T09:21:34.243Z,44.80
2023-02-16T09:24:05.032Z,42.67
2023-02-16T09:26:34.691Z,43.57
2023-02-16T09:29:02.211Z,42.47
2023-02-16T09:31:35.596Z,42.47
2023-02-16T09:34:23.341Z,42.10
2023-02-16T09:36:51.282Z,42.40
2023-02-16T09:39:19.255Z,44.03
2023-02-16T09:41:49.042Z,39.40
2023-02-16T09:44:39.389Z,40.47
2023-02-16T09:47:15.515Z,40.60
2023-02-16T09:49:45.092Z,41.70
2023-02-16T09:52:36.110Z,41.70
2023-02-16T09:55:16.517Z,41.87
2023-02-16T09:58:01.166Z,39.63
2023-02-16T10:00:33.834Z,42.03
2023-02-16T10:03:13.486Z,42.20
2023-02-16T10:05:56.592Z,40.50
2023-02-16T10:08:31.280Z,41.80
2023-02-16T10:11:28.198Z,42.60
2023-02-16T10:13:59.069Z,41.70
2023-02-16T10:16:35.205Z,42.40
2023-02-16T10:19:08.726Z,41.87
2023-02-16T10:21:36.173Z,40.00
2023-02-16T10:24:07.474Z,40.97
2023-02-16T10:26:47.865Z,40.13
2023-02-16T10:29:18.981Z,38.33
2023-02-16T10:32:25.983Z,39.23
2023-02-16T10:35:04.628Z,39.70
2023-02-16T10:38:11.491Z,41.37
2023-02-16T10:40:56.831Z,40.23
2023-02-16T10:43:43.320Z,38.83
2023-02-16T10:46:16.902Z,40.40
2023-02-16T10:48:45.149Z,39.77
2023-02-16T10:51:16.896Z,41.97
2023-02-16T10:53:51.231Z,41.13
2023-02-16T10:56:25.038Z,40.00
2023-02-16T10:58:52.835Z,42.57
2023-02-16T11:01:26.781Z,40.33
2023-02-16T11:03:54.146Z,41.37
2023-02-16T11:06:25.484Z,40.77
2023-02-16T11:08:59.352Z,40.60
2023-02-16T11:11:35.841Z,42.70
2023-02-16T11:14:18.697Z,40.70
2023-02-16T11:16:46.594Z,39.93
2023-02-16T11:19:22.671Z,41.90
2023-02-16T11:21:55.335Z,42.70
2023-02-16T11:24:30.487Z,42.73
2023-02-16T11:27:03.221Z,43.03
2023-02-16T11:29:31.570Z,44.13
2023-02-16T11:31:59.654Z,44.67
2023-02-16T11:34:37.523Z,43.77
2023-02-16T11:37:27.950Z,46.07
2023-02-16T11:40:09.295Z,45.50
2023-02-16T11:42:40.390Z,47.30
2023-02-16T11:45:09.352Z,46.57
2023-02-16T11:47:43.054Z,47.60
2023-02-16T11:50:28.458Z,48.73
2023-02-16T11:53:26.186Z,48.00
2023-02-16T11:56:27.195Z,46.13
2023-02-16T11:59:21.280Z,47.10
2023-02-16T12:02:00.542Z,46.13
2023-02-16T12:04:42.462Z,50.10
2023-02-16T12:07:27.677Z,48.30
2023-02-16T12:10:04.237Z,51.40
2023-02-16T12:12:40.276Z,48.93
2023-02-16T12:15:45.007Z,47.93
2023-02-16T12:18:19.702Z,47.90
2023-02-16T12:21:02.175Z,47.03
2023-02-16T12:23:40.987Z,49.50
2023-02-16T12:26:20.090Z,46.23
2023-02-16T12:28:59.135Z,45.90
2023-02-16T12:31:52.595Z,49.10
2023-02-16T12:34:50.164Z,50.13
2023-02-16T12:37:16.870Z,48.07
2023-02-16T12:39:59.127Z,50.07
2023-02-16T12:42:41.050Z,50.67
2023-02-16T12:45:18.923Z,48.40
2023-02-16T12:47:45.529Z,46.63
2023-02-16T12:50:27.795Z,49.07
2023-02-16T12:53:01.326Z,47.57
2023-02-16T12:55:36.372Z,48.73
2023-02-16T12:58:27.370Z,48.53
2023-02-16T13:01:00.070Z,47.50
2023-02-16T13:03:39.280Z,50.10
2023-02-16T13:06:21.559Z,46.37
2023-02-16T13:08:51.178Z,45.90
2023-02-16T13:11:20.527Z,47.17
2023-02-16T13:13:48.534Z,47.93
2023-02-16T13:16:50.437Z,46.30
2023-02-16T13:19:17.311Z,47.17
2023-02-16T13:21:53.059Z,47.30
2023-02-16T13:24:46.494Z,45.33
2023-02-16T13:27:46.668Z,44.50
2023-02-16T13:30:43.111Z,46.20
2023-02-16T13:33:27.242Z,46.50
2023-02-16T13:36:14.817Z,44.90
2023-02-16T13:39:28.723Z,46.97
2023-02-16T13:42:04.330Z,45.13
2023-02-16T13:44:36.782Z,46.73
2023-02-16T13:47:05.163Z,45.70
2023-02-16T13:49:40.494Z,45.40
2023-02-16T13:52:08.809Z,47.23
2023-02-16T13:54:39.951Z,46.83
2023-02-16T13:57:12.564Z,46.67
2023-02-16T13:59:39.124Z,46.97
2023-02-16T14:02:32.475Z,48.60
2023-02-16T14:04:59.088Z,45.37
2023-02-16T14:07:35.931Z,45.33
2023-02-16T14:10:02.732Z,46.83
2023-02-16T14:12:36.172Z,47.87
2023-02-16T14:15:07.578Z,45.20
2023-02-16T14:17:35.576Z,48.33
2023-02-16T14:20:24.919Z,48.10
2023-02-16T14:23:00.167Z,48.63
2023-02-16T14:25:28.883Z,46.33
2023-02-16T14:28:14.259Z,48.73
2023-02-16T14:30:55.806Z,50.80
2023-02-16T14:33:39.005Z,52.73
2023-02-16T14:36:14.232Z,49.73
2023-02-16T14:38:41.412Z,48.27
2023-02-16T14:41:22.619Z,47.77
2023-02-16T14:43:51.528Z,48.83
2023-02-16T14:46:36.534Z,49.70
2023-02-16T14:49:21.797Z,50.30
2023-02-16T14:51:57.624Z,48.43
2023-02-16T14:54:37.617Z,52.07
2023-02-16T14:57:38.341Z,50.97
2023-02-16T15:00:14.512Z,50.00
2023-02-16T15:02:55.909Z,55.07
2023-02-16T15:05:41.718Z,52.77
2023-02-16T15:08:16.509Z,52.57
2023-02-16T15:10:47.924Z,51.90
2023-02-16T15:13:23.946Z,51.20
2023-02-16T15:15:56.001Z,52.53
2023-02-16T15:18:27.567Z,51.00
2023-02-16T15:20:58.319Z,51.97
2023-02-16T15:23:28.600Z,52.13
2023-02-16T15:25:58.589Z,50.60
2023-02-16T15:28:29.605Z,51.67
2023-02-16T15:30:59.491Z,53.90
2023-02-16T15:33:32.577Z,52.30
2023-02-16T15:36:02.690Z,53.90
2023-02-16T15:38:35.397Z,50.33
2023-02-16T15:41:07.841Z,52.27
2023-02-16T15:43:43.717Z,53.80
2023-02-16T15:46:33.625Z,53.27
2023-02-16T15:49:32.859Z,51.27
2023-02-16T15:52:01.007Z,51.80
2023-02-16T15:54:31.172Z,51.20
2023-02-16T15:57:04.506Z,53.03
2023-02-16T15:59:57.194Z,52.60
2023-02-16T16:02:44.131Z,51.60
2023-02-16T16:05:24.042Z,52.80
2023-02-16T16:07:51.673Z,51.67
2023-02-16T16:10:30.643Z,50.03
2023-02-16T16:13:04.110Z,52.13
2023-02-16T16:15:34.616Z,50.33
2023-02-16T16:18:02.692Z,51.23
2023-02-16T16:20:38.041Z,51.90
2023-02-16T16:23:14.175Z,50.50
2023-02-16T16:25:47.750Z,52.97
2023-02-16T16:28:34.059Z,51.83
2023-02-16T16:31:16.440Z,51.33
2023-02-16T16:33:53.255Z,51.27
2023-02-16T16:36:20.892Z,53.10
2023-02-16T16:38:47.890Z,51.47
2023-02-16T16:41:27.745Z,53.43
2023-02-16T16:43:56.522Z,50.30
2023-02-16T16:46:23.095Z,52.40
2023-02-16T16:48:53.845Z,49.17
2023-02-16T16:51:34.687Z,49.90
2023-02-16T16:54:12.496Z,51.43
2023-02-16T16:56:41.356Z,50.77
2023-02-16T16:59:08.681Z,52.23
2023-02-16T17:01:35.832Z,49.07
2023-02-16T17:04:02.701Z,49.93
2023-02-16T17:06:29.831Z,53.13
2023-02-16T17:08:56.478Z,50.17
2023-02-16T17:11:31.954Z,50.00
2023-02-16T17:14:27.025Z,50.17
2023-02-16T17:16:55.128Z,52.07
2023-02-16T17:19:22.910Z,48.40
2023-02-16T17:21:50.021Z,50.03
2023-02-16T17:24:16.838Z,49.10
2023-02-16T17:26:43.542Z,50.37
2023-02-16T17:29:10.376Z,50.80
2023-02-16T17:31:37.403Z,49.67
2023-02-16T17:34:04.542Z,52.03
2023-02-16T17:36:31.292Z,51.13
2023-02-16T17:38:58.165Z,51.10
2023-02-16T17:41:27.831Z,53.30
2023-02-16T17:43:54.776Z,52.10
2023-02-16T17:46:23.308Z,50.57
2023-02-16T17:48:53.535Z,50.17
2023-02-16T17:51:21.931Z,49.27
2023-02-16T17:53:48.872Z,51.70
2023-02-16T17:56:18.687Z,49.97
2023-02-16T17:58:45.591Z,49.87
2023-02-16T18:01:17.198Z,50.87
2023-02-16T18:03:44.219Z,51.17
2023-02-16T18:06:14.691Z,51.97
2023-02-16T18:08:41.392Z,50.73
2023-02-16T18:11:08.086Z,49.67
2023-02-16T18:13:34.991Z,52.63
2023-02-16T18:16:06.941Z,50.03
2023-02-16T18:18:36.769Z,49.23
2023-02-16T18:21:03.728Z,50.97
2023-02-16T18:23:31.280Z,48.23
2023-02-16T18:25:58.064Z,50.87
2023-02-16T18:28:30.802Z,48.57
2023-02-16T18:30:57.927Z,48.33
2023-02-16T18:33:25.588Z,46.67
2023-02-16T18:35:55.159Z,49.67
2023-02-16T18:38:22.967Z,47.83
2023-02-16T18:40:50.379Z,46.23
2023-02-16T18:43:17.136Z,49.63
2023-02-16T18:45:44.067Z,48.17
2023-02-16T18:48:10.882Z,50.03
2023-02-16T18:50:37.555Z,49.33
2023-02-16T18:53:04.254Z,50.67
2023-02-16T18:55:35.800Z,48.77
2023-02-16T18:58:07.393Z,49.70
2023-02-16T19:00:34.778Z,48.70
2023-02-16T19:03:01.737Z,52.13
2023-02-16T19:05:28.655Z,50.90
2023-02-16T19:07:55.365Z,51.90
2023-02-16T19:10:22.117Z,51.07
2023-02-16T19:12:48.837Z,49.33
2023-02-16T19:15:15.552Z,49.50
2023-02-16T19:17:42.428Z,51.53
2023-02-16T19:20:12.205Z,50.37
2023-02-16T19:22:39.036Z,49.50
2023-02-16T19:25:06.657Z,50.20
2023-02-16T19:27:33.782Z,49.57
2023-02-16T19:30:00.776Z,49.13
2023-02-16T19:32:27.519Z,48.97
2023-02-16T19:34:54.210Z,50.03
2023-02-16T19:37:21.351Z,49.77
2023-02-16T19:39:48.051Z,48.47
2023-02-16T19:42:17.291Z,49.43
2023-02-16T19:44:43.961Z,45.77
2023-02-16T19:47:10.623Z,44.00
2023-02-16T19:49:37.374Z,43.90
2023-02-16T19:52:04.787Z,42.67
2023-02-16T19:54:35.844Z,44.47
2023-02-16T19:57:03.911Z,40.23
2023-02-16T19:59:32.311Z,38.80
2023-02-16T20:01:59.423Z,39.70
2023-02-16T20:04:26.624Z,37.77
2023-02-16T20:06:56.632Z,45.97
2023-02-16T20:09:24.735Z,39.90
2023-02-16T20:11:52.062Z,40.23
2023-02-16T20:14:18.895Z,39.27
2023-02-16T20:16:46.096Z,38.73
2023-02-16T20:19:12.873Z,42.30
2023-02-16T20:21:43.998Z,37.30
2023-02-16T20:24:11.296Z,37.47
2023-02-16T20:26:41.270Z,37.93
2023-02-16T20:29:10.332Z,35.37
2023-02-16T20:31:43.979Z,36.80
2023-02-16T20:34:11.217Z,37.33
2023-02-16T20:36:38.011Z,37.23
2023-02-16T20:39:07.089Z,34.10
2023-02-16T20:41:33.913Z,35.70
2023-02-16T20:44:02.873Z,31.63
2023-02-16T20:46:30.152Z,29.77
2023-02-16T20:48:56.951Z,30.67
2023-02-16T20:51:24.314Z,31.27
2023-02-16T20:53:51.015Z,30.57
2023-02-16T20:56:21.742Z,30.30
2023-02-16T20:58:50.513Z,31.83
2023-02-16T21:01:21.752Z,30.57
2023-02-16T21:03:50.049Z,30.67
2023-02-16T21:06:17.040Z,29.07
2023-02-16T21:08:43.911Z,30.27
2023-02-16T21:11:11.177Z,34.00
2023-02-16T21:13:39.562Z,31.90
2023-02-16T21:16:07.448Z,30.90
2023-02-16T21:18:35.064Z,29.77
2023-02-16T21:21:03.012Z,31.47
2023-02-16T21:23:30.441Z,30.17
2023-02-16T21:26:05.478Z,29.80
2023-02-16T21:28:32.653Z,31.70
2023-02-16T21:31:13.809Z,29.67
2023-02-16T21:33:40.928Z,30.73
2023-02-16T21:36:11.131Z,29.60
2023-02-16T21:38:38.707Z,30.93
2023-02-16T21:41:25.661Z,35.23
2023-02-16T21:44:05.985Z,32.30
2023-02-16T21:46:37.525Z,33.90
2023-02-16T21:49:09.923Z,35.40
2023-02-16T21:51:38.750Z,37.23
2023-02-16T21:54:07.299Z,34.73
2023-02-16T21:56:37.395Z,35.63
2023-02-16T21:59:06.210Z,37.13
2023-02-16T22:01:37.161Z,34.10
2023-02-16T22:04:04.426Z,36.20
2023-02-16T22:06:35.469Z,33.10
2023-02-16T22:09:05.631Z,39.53
2023-02-16T22:11:32.497Z,35.47
2023-02-16T22:14:00.661Z,36.53
2023-02-16T22:16:28.946Z,36.77
2023-02-16T22:19:08.009Z,36.67
2023-02-16T22:21:37.536Z,37.13
2023-02-16T22:24:05.130Z,37.30
2023-02-16T22:26:33.862Z,35.77
2023-02-16T22:29:04.272Z,40.67
2023-02-16T22:31:31.304Z,37.43
2023-02-16T22:34:02.069Z,36.97
2023-02-16T22:36:29.758Z,37.13
2023-02-16T22:38:57.223Z,50.27
2023-02-16T22:41:24.630Z,35.93
2023-02-16T22:43:56.207Z,36.47
2023-02-16T22:46:24.706Z,38.27
2023-02-16T22:48:52.131Z,35.70
2023-02-16T22:51:21.296Z,35.97
2023-02-16T22:53:48.880Z,36.40
2023-02-16T22:56:18.775Z,36.13
2023-02-16T22:58:46.496Z,36.13
2023-02-16T23:01:19.713Z,36.83
2023-02-16T23:03:54.155Z,35.17
2023-02-16T23:06:23.520Z,33.27
2023-02-16T23:08:59.222Z,34.53
2023-02-16T23:11:27.532Z,37.10
2023-02-16T23:13:54.751Z,34.97
2023-02-16T23:16:24.775Z,32.87
2023-02-16T23:18:51.820Z,36.63
2023-02-16T23:21:27.393Z,37.67
2023-02-16T23:23:55.035Z,31.60
2023-02-16T23:26:23.570Z,33.30
2023-02-16T23:28:53.333Z,34.93
2023-02-16T23:31:20.948Z,33.03
2023-02-16T23:33:47.879Z,35.20
2023-02-16T23:36:14.574Z,34.93
2023-02-16T23:38:41.336Z,33.97
2023-02-16T23:41:11.947Z,37.87
2023-02-16T23:43:39.001Z,34.87
2023-02-16T23:46:06.448Z,34.90
2023-02-16T23:48:34.618Z,38.13
2023-02-16T23:51:01.751Z,37.03
2023-02-16T23:53:29.001Z,31.87
2023-02-16T23:55:59.770Z,41.87
2023-02-16T23:58:31.583Z,37.60
